sensor_id;sensor_type;location;lat;lon;timestamp;pressure;altitude;pressure_sealevel;temperature;humidity
61740;BME280;47645;45.288;12.038;2024-02-28T00:00:47;1011.9797356214459;;;10.3556640625;100
61740;BME280;47645;45.288;12.038;2024-02-28T00:10:48;1012.0124970257331;;;10.319921875;100
61740;BME280;47645;45.288;12.038;2024-02-28T00:20:48;1012.0668968450883;;;10.386328125;100
61740;BME280;47645;45.288;12.038;2024-02-28T00:30:49;1012.0882776097493;;;10.41171875;100
61740;BME280;47645;45.288;12.038;2024-02-28T00:40:50;1011.9490460434484;;;10.4728515625;100
61740;BME280;47645;45.288;12.038;2024-02-28T00:50:51;1011.966723569946;;;10.533984375;100
61740;BME280;47645;45.288;12.038;2024-02-28T01:00:51;1012.0382589901898;;;10.513671875;100
61740;BME280;47645;45.288;12.038;2024-02-28T01:10:52;1011.8760547889444;;;10.5953125;100
61740;BME280;47645;45.288;12.038;2024-02-28T01:20:54;1011.8186957972813;;;10.600390625;100
61740;BME280;47645;45.288;12.038;2024-02-28T01:30:54;1011.8895541972547;;;10.5544921875;100
61740;BME280;47645;45.288;12.038;2024-02-28T01:40:54;1011.8979052853989;;;10.523828125;100
61740;BME280;47645;45.288;12.038;2024-02-28T01:50:55;1012.0525563014713;;;10.406640625;100
61740;BME280;47645;45.288;12.038;2024-02-28T02:00:56;1012.0409983309196;;;10.3046875;100
61740;BME280;47645;45.288;12.038;2024-02-28T02:10:57;1012.1317783406969;;;10.279296875;100
61740;BME280;47645;45.288;12.038;2024-02-28T02:21:02;1012.093910800813;;;10.4322265625;100
61740;BME280;47645;45.288;12.038;2024-02-28T02:30:57;1012.2433409897127;;;10.4984375;100
61740;BME280;47645;45.288;12.038;2024-02-28T02:40:58;1012.3004313779305;;;10.4423828125;100
61740;BME280;47645;45.288;12.038;2024-02-28T02:50:59;1012.3236647551213;;;10.4015625;100
61740;BME280;47645;45.288;12.038;2024-02-28T03:00:59;1012.4265950418812;;;10.38125;100
61740;BME280;47645;45.288;12.038;2024-02-28T03:11:00;1012.5025041509157;;;10.396484375;100
61740;BME280;47645;45.288;12.038;2024-02-28T03:21:01;1012.5948407262986;;;10.2689453125;100
61740;BME280;47645;45.288;12.038;2024-02-28T03:31:01;1012.6706582968916;;;10.202734375;100
61740;BME280;47645;45.288;12.038;2024-02-28T03:41:02;1012.7967989253822;;;10.2078125;100
61740;BME280;47645;45.288;12.038;2024-02-28T03:51:03;1012.9258560953947;;;10.1875;100
61740;BME280;47645;45.288;12.038;2024-02-28T04:01:04;1012.9211608888289;;;10.29453125;100
61740;BME280;47645;45.288;12.038;2024-02-28T04:11:04;1012.9701754089759;;;10.19765625;100
61740;BME280;47645;45.288;12.038;2024-02-28T04:21:04;1013.0109389558774;;;10.10078125;100
61740;BME280;47645;45.288;12.038;2024-02-28T04:31:05;1013.1351407207204;;;10.10078125;100
61740;BME280;47645;45.288;12.038;2024-02-28T04:41:06;1013.2313256312032;;;10.0703125;100
61740;BME280;47645;45.288;12.038;2024-02-28T04:51:06;1013.3758019386498;;;10.0396484375;100
61740;BME280;47645;45.288;12.038;2024-02-28T05:01:07;1013.3804609927123;;;10.08046875;100
61740;BME280;47645;45.288;12.038;2024-02-28T05:11:08;1013.4240267209832;;;10.06015625;100
61740;BME280;47645;45.288;12.038;2024-02-28T05:21:08;1013.5299208144993;;;10.1111328125;100
61740;BME280;47645;45.288;12.038;2024-02-28T05:31:21;1013.549248177948;;;10.192578125;100
61740;BME280;47645;45.288;12.038;2024-02-28T05:41:09;1013.7758767759059;;;10.2333984375;100
61740;BME280;47645;45.288;12.038;2024-02-28T05:51:11;1013.9614728475979;;;10.3046875;100
61740;BME280;47645;45.288;12.038;2024-02-28T06:01:11;1014.066117786557;;;10.2283203125;100
61740;BME280;47645;45.288;12.038;2024-02-28T06:11:11;1014.3107824813155;;;10.3046875;100
61740;BME280;47645;45.288;12.038;2024-02-28T06:21:13;1014.4933797892435;;;10.386328125;100
61740;BME280;47645;45.288;12.038;2024-02-28T06:31:14;1014.5285288237437;;;10.503515625;100
61740;BME280;47645;45.288;12.038;2024-02-28T06:41:14;1014.6779889905989;;;10.6462890625;100
61740;BME280;47645;45.288;12.038;2024-02-28T06:51:16;1014.8065408108573;;;10.844921875;100
61740;BME280;47645;45.288;12.038;2024-02-28T07:01:15;1014.9614116943939;;;10.7328125;100
61740;BME280;47645;45.288;12.038;2024-02-28T07:11:15;1014.9432997505405;;;10.7888671875;100
61740;BME280;47645;45.288;12.038;2024-02-28T07:21:16;1015.1288174750073;;;10.7888671875;100
61740;BME280;47645;45.288;12.038;2024-02-28T07:31:17;1015.26017829575;;;10.931640625;100
61740;BME280;47645;45.288;12.038;2024-02-28T07:41:17;1015.2486680781417;;;11.0947265625;100
61740;BME280;47645;45.288;12.038;2024-02-28T07:51:18;1015.3306257197033;;;11.069140625;100
61740;BME280;47645;45.288;12.038;2024-02-28T08:11:19;1015.5352077754907;;;11.2271484375;100
61740;BME280;47645;45.288;12.038;2024-02-28T08:21:20;1015.607314020343;;;11.3037109375;100
61740;BME280;47645;45.288;12.038;2024-02-28T08:31:21;1015.6858425708974;;;11.3291015625;100
61740;BME280;47645;45.288;12.038;2024-02-28T08:41:21;1015.8244886975444;;;11.2119140625;100
61740;BME280;47645;45.288;12.038;2024-02-28T08:51:22;1015.9001126963453;;;11.3546875;100
61740;BME280;47645;45.288;12.038;2024-02-28T09:01:23;1016.0189927840161;;;11.573828125;100
61740;BME280;47645;45.288;12.038;2024-02-28T09:11:24;1016.0702560275872;;;11.476953125;100
61740;BME280;47645;45.288;12.038;2024-02-28T09:21:25;1016.0577521718438;;;11.497265625;100
61740;BME280;47645;45.288;12.038;2024-02-28T09:31:25;1015.9903799067532;;;11.5380859375;100
61740;BME280;47645;45.288;12.038;2024-02-28T09:41:28;1015.9906205696097;;;11.803125;100
61740;BME280;47645;45.288;12.038;2024-02-28T09:51:28;1016.0560786851252;;;11.9763671875;100
61740;BME280;47645;45.288;12.038;2024-02-28T10:01:28;1016.1743919594811;;;12.1701171875;100
61740;BME280;47645;45.288;12.038;2024-02-28T10:11:28;1016.3407633767738;;;12.2974609375;100
61740;BME280;47645;45.288;12.038;2024-02-28T10:21:30;1016.4991278358618;;;12.3841796875;100
61740;BME280;47645;45.288;12.038;2024-02-28T10:31:32;1016.5741402855704;;;12.526953125;100
61740;BME280;47645;45.288;12.038;2024-02-28T10:41:32;1016.6794470680808;;;12.4453125;100
61740;BME280;47645;45.288;12.038;2024-02-28T10:51:34;1016.7157650190595;;;12.41484375;100
61740;BME280;47645;45.288;12.038;2024-02-28T11:01:32;1016.5988250009489;;;12.450390625;100
61740;BME280;47645;45.288;12.038;2024-02-28T11:11:34;1016.679242904947;;;12.35859375;100
61740;BME280;47645;45.288;12.038;2024-02-28T11:21:35;1016.6261899822721;;;12.33828125;100
61740;BME280;47645;45.288;12.038;2024-02-28T11:31:35;1016.5787144565272;;;12.557421875;100
61740;BME280;47645;45.288;12.038;2024-02-28T11:41:35;1016.5953722325993;;;12.64921875;100
61740;BME280;47645;45.288;12.038;2024-02-28T11:51:36;1016.5787144565272;;;12.557421875;100
61740;BME280;47645;45.288;12.038;2024-02-28T12:01:38;1016.5118548129886;;;13.0162109375;100
61740;BME280;47645;45.288;12.038;2024-02-28T12:11:38;1016.4497156429253;;;13.1080078125;100
61740;BME280;47645;45.288;12.038;2024-02-28T12:21:39;1016.3920285980417;;;13.2556640625;100
61740;BME280;47645;45.288;12.038;2024-02-28T12:31:39;1016.1949500379935;;;13.515625;100
61740;BME280;47645;45.288;12.038;2024-02-28T12:41:40;1016.1847712307622;;;13.6328125;100
61740;BME280;47645;45.288;12.038;2024-02-28T12:51:42;1016.1298088825844;;;13.7908203125;100
61740;BME280;47645;45.288;12.038;2024-02-28T13:01:42;1016.1558758741277;;;14.0099609375;100
61740;BME280;47645;45.288;12.038;2024-02-28T13:11:42;1016.1655822283534;;;14.1119140625;100
61740;BME280;47645;45.288;12.038;2024-02-28T13:21:43;1016.1631554794135;;;14.46875;100
61740;BME280;47645;45.288;12.038;2024-02-28T13:31:44;1016.061154141046;;;14.901953125;100
61740;BME280;47645;45.288;12.038;2024-02-28T13:41:45;1016.09846215753;;;15.008984375;100
61740;BME280;47645;45.288;12.038;2024-02-28T13:51:45;1016.1945513510326;;;15.2384765625;100
61740;BME280;47645;45.288;12.038;2024-02-28T14:01:46;1016.0918415556921;;;15.523828125;100
61740;BME280;47645;45.288;12.038;2024-02-28T14:11:47;1016.0851466159767;;;15.3810546875;100
61740;BME280;47645;45.288;12.038;2024-02-28T14:21:48;1016.078966903697;;;15.8958984375;100
61740;BME280;47645;45.288;12.038;2024-02-28T14:31:49;1016.042057824461;;;15.5748046875;100
61740;BME280;47645;45.288;12.038;2024-02-28T14:41:49;1016.0684343582652;;;15.7990234375;100
61740;BME280;47645;45.288;12.038;2024-02-28T14:51:51;1016.0540628183604;;;15.4626953125;100
61740;BME280;47645;45.288;12.038;2024-02-28T15:01:51;1016.0875882645613;;;15.330078125;100
61740;BME280;47645;45.288;12.038;2024-02-28T15:11:53;1016.1236373394954;;;15.0244140625;100
61740;BME280;47645;45.288;12.038;2024-02-28T15:21:53;1016.1062311057017;;;14.8357421875;100
61740;BME280;47645;45.288;12.038;2024-02-28T15:31:54;1016.0041390388864;;;14.759375;100
61740;BME280;47645;45.288;12.038;2024-02-28T15:41:54;1015.9964047859162;;;14.4279296875;100
61740;BME280;47645;45.288;12.038;2024-02-28T15:51:55;1015.9862973899201;;;14.4177734375;100
61740;BME280;47645;45.288;12.038;2024-02-28T16:01:57;1016.0437254247701;;;14.4330078125;100
61740;BME280;47645;45.288;12.038;2024-02-28T16:11:57;1016.0382820711795;;;14.6267578125;100
61740;BME280;47645;45.288;12.038;2024-02-28T16:21:58;1016.0631882852291;;;14.6369140625;100
61740;BME280;47645;45.288;12.038;2024-02-28T16:31:58;1016.1018500939979;;;14.677734375;100
61740;BME280;47645;45.288;12.038;2024-02-28T16:41:59;1016.1724888326852;;;14.698046875;100
61740;BME280;47645;45.288;12.038;2024-02-28T16:52:00;1016.2507465049389;;;14.4076171875;100
61740;BME280;47645;45.288;12.038;2024-02-28T17:02:01;1016.3756160597122;;;14.2087890625;100
61740;BME280;47645;45.288;12.038;2024-02-28T17:12:02;1016.4722369773745;;;13.80625;100
61740;BME280;47645;45.288;12.038;2024-02-28T17:22:02;1016.5278956115715;;;13.6431640625;100
61740;BME280;47645;45.288;12.038;2024-02-28T17:32:04;1016.5375969673792;;;13.5564453125;100
61740;BME280;47645;45.288;12.038;2024-02-28T17:42:04;1016.6470043374451;;;13.423828125;100
61740;BME280;47645;45.288;12.038;2024-02-28T17:52:06;1016.6828813422699;;;13.373046875;100
61740;BME280;47645;45.288;12.038;2024-02-28T18:02:06;1016.6695550770758;;;13.3626953125;100
61740;BME280;47645;45.288;12.038;2024-02-28T18:12:07;1016.7044293964491;;;13.19453125;100
61740;BME280;47645;45.288;12.038;2024-02-28T18:22:09;1016.6896890095866;;;12.95;100
61740;BME280;47645;45.288;12.038;2024-02-28T18:32:08;1016.7211238659172;;;12.8123046875;100
61740;BME280;47645;45.288;12.038;2024-02-28T18:42:09;1016.7099100939569;;;12.8072265625;100
61740;BME280;47645;45.288;12.038;2024-02-28T18:52:09;1016.6760222299;;;12.64921875;100
61740;BME280;47645;45.288;12.038;2024-02-28T19:02:10;1016.7896007214742;;;12.6185546875;100
61740;BME280;47645;45.288;12.038;2024-02-28T19:12:15;1016.7964887485649;;;12.440234375;100
61740;BME280;47645;45.288;12.038;2024-02-28T19:22:11;1016.7794231982139;;;12.353515625;100
61740;BME280;47645;45.288;12.038;2024-02-28T19:32:13;1016.757593902295;;;12.31796875;100
61740;BME280;47645;45.288;12.038;2024-02-28T19:42:13;1016.8182609596422;;;12.0580078125;100
61740;BME280;47645;45.288;12.038;2024-02-28T19:52:13;1016.911679042158;;;11.884765625;100
61740;BME280;47645;45.288;12.038;2024-02-28T20:02:14;1016.828252772541;;;11.680859375;100
61740;BME280;47645;45.288;12.038;2024-02-28T20:12:15;1016.8945332884941;;;11.6552734375;100
61740;BME280;47645;45.288;12.038;2024-02-28T20:22:16;1016.8115905767551;;;11.5380859375;100
61740;BME280;47645;45.288;12.038;2024-02-28T20:32:17;1016.8548591761983;;;11.283203125;100
61740;BME280;47645;45.288;12.038;2024-02-28T20:42:17;1016.8253971973896;;;11.359765625;100
61740;BME280;47645;45.288;12.038;2024-02-28T20:52:18;1016.7676839774798;;;11.3240234375;100
61740;BME280;47645;45.288;12.038;2024-02-28T21:02:18;1016.7004607366787;;;11.3138671875;100
61740;BME280;47645;45.288;12.038;2024-02-28T21:12:25;1016.7427836323347;;;11.3953125;100
61740;BME280;47645;45.288;12.038;2024-02-28T21:22:28;1016.7951225852037;;;11.4208984375;100
61740;BME280;47645;45.288;12.038;2024-02-28T21:32:22;1016.8392488734048;;;11.3953125;100
61740;BME280;47645;45.288;12.038;2024-02-28T21:42:24;1016.7907278716862;;;11.4515625;100
61740;BME280;47645;45.288;12.038;2024-02-28T21:52:24;1016.8437784677999;;;11.3341796875;100
61740;BME280;47645;45.288;12.038;2024-02-28T22:02:22;1016.8144001734648;;;11.2935546875;100
61740;BME280;47645;45.288;12.038;2024-02-28T22:12:23;1016.7287385106498;;;11.34453125;100
61740;BME280;47645;45.288;12.038;2024-02-28T22:22:24;1016.5084255273993;;;11.2375;100
61740;BME280;47645;45.288;12.038;2024-02-28T22:32:26;1016.5481489908381;;;11.155859375;100
61740;BME280;47645;45.288;12.038;2024-02-28T22:42:27;1016.5778853932901;;;10.941796875;100
61740;BME280;47645;45.288;12.038;2024-02-28T22:52:26;1016.5914649101619;;;10.81953125;100
61740;BME280;47645;45.288;12.038;2024-02-28T23:02:27;1016.5707874607764;;;10.9265625;100
61740;BME280;47645;45.288;12.038;2024-02-28T23:12:27;1016.5769422265016;;;10.824609375;100
61740;BME280;47645;45.288;12.038;2024-02-28T23:22:28;1016.6032509800502;;;10.7939453125;100
61740;BME280;47645;45.288;12.038;2024-02-28T23:32:29;1016.4057218345328;;;10.8041015625;100
61740;BME280;47645;45.288;12.038;2024-02-28T23:42:29;1016.4098681159712;;;10.7837890625;100
61740;BME280;47645;45.288;12.038;2024-02-28T23:52:30;1016.3889132880311;;;11.0998046875;100
